sensor_id;sensor_type;location;lat;lon;timestamp;P1;durP1;ratioP1;P2;durP2;ratioP2
46322;SDS011;32044;52.386;13.278;2023-10-19T00:00:00;26.48;;;16.90;;
46322;SDS011;32044;52.386;13.278;2023-10-19T00:02:48;25.85;;;16.77;;
46322;SDS011;32044;52.386;13.278;2023-10-19T00:05:17;26.27;;;16.85;;
46322;SDS011;32044;52.386;13.278;2023-10-19T00:07:46;26.85;;;17.42;;
46322;SDS011;32044;52.386;13.278;2023-10-19T00:10:13;29.98;;;16.85;;
46322;SDS011;32044;52.386;13.278;2023-10-19T00:12:43;29.77;;;17.50;;
46322;SDS011;32044;52.386;13.278;2023-10-19T00:15:11;27.90;;;17.73;;
46322;SDS011;32044;52.386;13.278;2023-10-19T00:17:40;25.60;;;17.48;;
46322;SDS011;32044;52.386;13.278;2023-10-19T00:20:11;28.35;;;17.35;;
46322;SDS011;32044;52.386;13.278;2023-10-19T00:25:32;28.52;;;17.48;;
46322;SDS011;32044;52.386;13.278;2023-10-19T00:28:01;26.55;;;16.60;;
46322;SDS011;32044;52.386;13.278;2023-10-19T00:30:33;36.63;;;18.60;;
46322;SDS011;32044;52.386;13.278;2023-10-19T00:33:02;37.45;;;19.23;;
46322;SDS011;32044;52.386;13.278;2023-10-19T00:35:33;30.00;;;18.95;;
46322;SDS011;32044;52.386;13.278;2023-10-19T00:38:02;25.63;;;16.92;;
46322;SDS011;32044;52.386;13.278;2023-10-19T00:40:50;31.08;;;19.13;;
46322;SDS011;32044;52.386;13.278;2023-10-19T00:43:26;31.25;;;18.52;;
46322;SDS011;32044;52.386;13.278;2023-10-19T00:45:56;26.65;;;17.88;;
46322;SDS011;32044;52.386;13.278;2023-10-19T00:48:24;26.67;;;18.38;;
46322;SDS011;32044;52.386;13.278;2023-10-19T00:50:52;29.75;;;18.17;;
46322;SDS011;32044;52.386;13.278;2023-10-19T00:53:33;30.00;;;18.38;;
46322;SDS011;32044;52.386;13.278;2023-10-19T00:56:03;30.67;;;17.95;;
46322;SDS011;32044;52.386;13.278;2023-10-19T00:58:32;28.60;;;18.25;;
46322;SDS011;32044;52.386;13.278;2023-10-19T01:01:03;30.15;;;16.90;;
46322;SDS011;32044;52.386;13.278;2023-10-19T01:03:33;23.43;;;14.27;;
46322;SDS011;32044;52.386;13.278;2023-10-19T01:06:04;29.40;;;17.77;;
46322;SDS011;32044;52.386;13.278;2023-10-19T01:08:37;30.17;;;17.38;;
46322;SDS011;32044;52.386;13.278;2023-10-19T01:11:11;31.67;;;18.48;;
46322;SDS011;32044;52.386;13.278;2023-10-19T01:13:41;29.73;;;17.50;;
46322;SDS011;32044;52.386;13.278;2023-10-19T01:16:13;31.48;;;18.88;;
46322;SDS011;32044;52.386;13.278;2023-10-19T01:18:49;28.30;;;18.38;;
46322;SDS011;32044;52.386;13.278;2023-10-19T01:21:21;31.48;;;17.88;;
46322;SDS011;32044;52.386;13.278;2023-10-19T01:23:53;29.15;;;18.52;;
46322;SDS011;32044;52.386;13.278;2023-10-19T01:26:21;31.23;;;19.08;;
46322;SDS011;32044;52.386;13.278;2023-10-19T01:28:52;31.23;;;17.98;;
46322;SDS011;32044;52.386;13.278;2023-10-19T01:31:25;32.65;;;18.98;;
46322;SDS011;32044;52.386;13.278;2023-10-19T01:34:05;32.05;;;19.55;;
46322;SDS011;32044;52.386;13.278;2023-10-19T01:36:34;32.10;;;19.63;;
46322;SDS011;32044;52.386;13.278;2023-10-19T01:39:10;32.00;;;19.63;;
46322;SDS011;32044;52.386;13.278;2023-10-19T01:41:37;31.35;;;19.67;;
46322;SDS011;32044;52.386;13.278;2023-10-19T01:44:07;32.13;;;20.42;;
46322;SDS011;32044;52.386;13.278;2023-10-19T01:46:39;35.78;;;20.10;;
46322;SDS011;32044;52.386;13.278;2023-10-19T01:49:10;29.60;;;18.63;;
46322;SDS011;32044;52.386;13.278;2023-10-19T01:51:37;29.20;;;18.92;;
46322;SDS011;32044;52.386;13.278;2023-10-19T01:54:05;34.00;;;19.48;;
46322;SDS011;32044;52.386;13.278;2023-10-19T01:56:35;35.55;;;20.23;;
46322;SDS011;32044;52.386;13.278;2023-10-19T01:59:05;33.35;;;19.02;;
46322;SDS011;32044;52.386;13.278;2023-10-19T02:01:32;30.15;;;18.30;;
46322;SDS011;32044;52.386;13.278;2023-10-19T02:04:04;33.28;;;18.98;;
46322;SDS011;32044;52.386;13.278;2023-10-19T02:06:33;35.72;;;19.25;;
46322;SDS011;32044;52.386;13.278;2023-10-19T02:09:03;28.13;;;18.33;;
46322;SDS011;32044;52.386;13.278;2023-10-19T02:11:44;32.55;;;19.52;;
46322;SDS011;32044;52.386;13.278;2023-10-19T02:14:12;31.02;;;18.25;;
46322;SDS011;32044;52.386;13.278;2023-10-19T02:16:41;32.35;;;19.42;;
46322;SDS011;32044;52.386;13.278;2023-10-19T02:19:09;32.90;;;19.85;;
46322;SDS011;32044;52.386;13.278;2023-10-19T02:21:37;30.65;;;18.23;;
46322;SDS011;32044;52.386;13.278;2023-10-19T02:24:06;32.75;;;19.02;;
46322;SDS011;32044;52.386;13.278;2023-10-19T02:26:34;29.75;;;18.50;;
46322;SDS011;32044;52.386;13.278;2023-10-19T02:29:03;34.17;;;19.25;;
46322;SDS011;32044;52.386;13.278;2023-10-19T02:31:34;30.30;;;19.10;;
46322;SDS011;32044;52.386;13.278;2023-10-19T02:34:00;36.88;;;19.33;;
46322;SDS011;32044;52.386;13.278;2023-10-19T02:36:30;31.63;;;19.60;;
46322;SDS011;32044;52.386;13.278;2023-10-19T02:38:57;31.65;;;18.60;;
46322;SDS011;32044;52.386;13.278;2023-10-19T02:41:27;32.40;;;18.85;;
46322;SDS011;32044;52.386;13.278;2023-10-19T02:43:55;32.28;;;19.17;;
46322;SDS011;32044;52.386;13.278;2023-10-19T02:46:33;31.08;;;19.50;;
46322;SDS011;32044;52.386;13.278;2023-10-19T02:49:00;29.38;;;18.92;;
46322;SDS011;32044;52.386;13.278;2023-10-19T02:51:29;30.30;;;19.13;;
46322;SDS011;32044;52.386;13.278;2023-10-19T02:53:57;32.53;;;19.95;;
46322;SDS011;32044;52.386;13.278;2023-10-19T02:56:25;31.50;;;20.77;;
46322;SDS011;32044;52.386;13.278;2023-10-19T02:58:56;30.90;;;19.52;;
46322;SDS011;32044;52.386;13.278;2023-10-19T03:01:28;36.20;;;20.33;;
46322;SDS011;32044;52.386;13.278;2023-10-19T03:03:59;31.15;;;19.23;;
46322;SDS011;32044;52.386;13.278;2023-10-19T03:06:27;34.15;;;19.08;;
46322;SDS011;32044;52.386;13.278;2023-10-19T03:08:58;31.42;;;18.40;;
46322;SDS011;32044;52.386;13.278;2023-10-19T03:11:31;33.13;;;18.55;;
46322;SDS011;32044;52.386;13.278;2023-10-19T03:13:58;33.38;;;19.17;;
46322;SDS011;32044;52.386;13.278;2023-10-19T03:16:26;34.88;;;20.45;;
46322;SDS011;32044;52.386;13.278;2023-10-19T03:18:56;31.88;;;19.98;;
46322;SDS011;32044;52.386;13.278;2023-10-19T03:21:26;35.22;;;19.58;;
46322;SDS011;32044;52.386;13.278;2023-10-19T03:23:53;31.42;;;19.63;;
46322;SDS011;32044;52.386;13.278;2023-10-19T03:26:22;28.92;;;17.65;;
46322;SDS011;32044;52.386;13.278;2023-10-19T03:28:54;38.10;;;20.25;;
46322;SDS011;32044;52.386;13.278;2023-10-19T03:31:29;34.22;;;19.25;;
46322;SDS011;32044;52.386;13.278;2023-10-19T03:33:59;31.75;;;19.75;;
46322;SDS011;32044;52.386;13.278;2023-10-19T03:36:33;33.05;;;20.05;;
46322;SDS011;32044;52.386;13.278;2023-10-19T03:39:00;32.08;;;19.67;;
46322;SDS011;32044;52.386;13.278;2023-10-19T03:41:37;31.75;;;20.35;;
46322;SDS011;32044;52.386;13.278;2023-10-19T03:44:08;34.47;;;18.83;;
46322;SDS011;32044;52.386;13.278;2023-10-19T03:46:39;30.40;;;19.55;;
46322;SDS011;32044;52.386;13.278;2023-10-19T03:49:19;39.42;;;20.92;;
46322;SDS011;32044;52.386;13.278;2023-10-19T03:51:48;36.80;;;21.13;;
46322;SDS011;32044;52.386;13.278;2023-10-19T03:54:46;34.25;;;20.95;;
46322;SDS011;32044;52.386;13.278;2023-10-19T03:57:15;39.03;;;20.92;;
46322;SDS011;32044;52.386;13.278;2023-10-19T03:59:46;34.83;;;20.13;;
46322;SDS011;32044;52.386;13.278;2023-10-19T04:02:16;34.25;;;20.77;;
46322;SDS011;32044;52.386;13.278;2023-10-19T04:04:47;35.80;;;20.85;;
46322;SDS011;32044;52.386;13.278;2023-10-19T04:07:17;37.08;;;20.58;;
46322;SDS011;32044;52.386;13.278;2023-10-19T04:09:47;33.13;;;21.08;;
46322;SDS011;32044;52.386;13.278;2023-10-19T04:12:26;38.17;;;21.35;;
46322;SDS011;32044;52.386;13.278;2023-10-19T04:14:57;35.25;;;20.02;;
46322;SDS011;32044;52.386;13.278;2023-10-19T04:17:27;36.47;;;20.92;;
46322;SDS011;32044;52.386;13.278;2023-10-19T04:19:54;41.40;;;22.35;;
46322;SDS011;32044;52.386;13.278;2023-10-19T04:22:24;38.38;;;23.08;;
46322;SDS011;32044;52.386;13.278;2023-10-19T04:24:51;34.08;;;22.02;;
46322;SDS011;32044;52.386;13.278;2023-10-19T04:27:19;32.03;;;22.02;;
46322;SDS011;32044;52.386;13.278;2023-10-19T04:29:49;34.80;;;22.50;;
46322;SDS011;32044;52.386;13.278;2023-10-19T04:32:17;36.75;;;22.55;;
46322;SDS011;32044;52.386;13.278;2023-10-19T04:34:51;38.08;;;21.25;;
46322;SDS011;32044;52.386;13.278;2023-10-19T04:37:20;36.42;;;21.48;;
46322;SDS011;32044;52.386;13.278;2023-10-19T04:39:52;38.85;;;21.38;;
46322;SDS011;32044;52.386;13.278;2023-10-19T04:42:19;39.40;;;22.63;;
46322;SDS011;32044;52.386;13.278;2023-10-19T04:44:49;37.08;;;22.70;;
46322;SDS011;32044;52.386;13.278;2023-10-19T04:47:16;39.25;;;22.20;;
46322;SDS011;32044;52.386;13.278;2023-10-19T04:49:44;36.58;;;22.13;;
46322;SDS011;32044;52.386;13.278;2023-10-19T04:52:12;38.40;;;22.98;;
46322;SDS011;32044;52.386;13.278;2023-10-19T04:54:39;38.17;;;22.65;;
46322;SDS011;32044;52.386;13.278;2023-10-19T04:57:09;39.13;;;23.02;;
46322;SDS011;32044;52.386;13.278;2023-10-19T04:59:38;36.25;;;23.40;;
46322;SDS011;32044;52.386;13.278;2023-10-19T05:02:05;39.13;;;23.88;;
46322;SDS011;32044;52.386;13.278;2023-10-19T05:04:33;39.03;;;23.48;;
46322;SDS011;32044;52.386;13.278;2023-10-19T05:07:02;36.72;;;23.10;;
46322;SDS011;32044;52.386;13.278;2023-10-19T05:09:30;34.47;;;22.50;;
46322;SDS011;32044;52.386;13.278;2023-10-19T05:11:58;40.30;;;24.75;;
46322;SDS011;32044;52.386;13.278;2023-10-19T05:14:27;41.25;;;23.40;;
46322;SDS011;32044;52.386;13.278;2023-10-19T05:16:55;37.97;;;24.42;;
46322;SDS011;32044;52.386;13.278;2023-10-19T05:19:24;33.90;;;22.52;;
46322;SDS011;32044;52.386;13.278;2023-10-19T05:21:52;44.05;;;24.85;;
46322;SDS011;32044;52.386;13.278;2023-10-19T05:24:19;39.10;;;24.58;;
46322;SDS011;32044;52.386;13.278;2023-10-19T05:26:47;40.38;;;23.83;;
46322;SDS011;32044;52.386;13.278;2023-10-19T05:29:15;36.67;;;22.75;;
46322;SDS011;32044;52.386;13.278;2023-10-19T05:31:44;42.35;;;26.02;;
46322;SDS011;32044;52.386;13.278;2023-10-19T05:34:12;46.35;;;25.52;;
46322;SDS011;32044;52.386;13.278;2023-10-19T05:36:39;40.33;;;25.30;;
46322;SDS011;32044;52.386;13.278;2023-10-19T05:39:09;43.83;;;24.25;;
46322;SDS011;32044;52.386;13.278;2023-10-19T05:41:37;40.20;;;24.05;;
46322;SDS011;32044;52.386;13.278;2023-10-19T05:44:06;44.65;;;25.52;;
46322;SDS011;32044;52.386;13.278;2023-10-19T05:46:33;36.92;;;23.27;;
46322;SDS011;32044;52.386;13.278;2023-10-19T05:49:03;42.30;;;25.60;;
46322;SDS011;32044;52.386;13.278;2023-10-19T05:51:32;41.28;;;24.27;;
46322;SDS011;32044;52.386;13.278;2023-10-19T05:54:00;41.22;;;25.75;;
46322;SDS011;32044;52.386;13.278;2023-10-19T05:56:29;43.92;;;24.00;;
46322;SDS011;32044;52.386;13.278;2023-10-19T05:58:57;39.80;;;25.50;;
46322;SDS011;32044;52.386;13.278;2023-10-19T06:01:24;42.97;;;25.88;;
46322;SDS011;32044;52.386;13.278;2023-10-19T06:03:52;43.47;;;26.17;;
46322;SDS011;32044;52.386;13.278;2023-10-19T06:06:21;44.95;;;26.30;;
46322;SDS011;32044;52.386;13.278;2023-10-19T06:08:49;42.42;;;25.73;;
46322;SDS011;32044;52.386;13.278;2023-10-19T06:11:19;42.13;;;26.83;;
46322;SDS011;32044;52.386;13.278;2023-10-19T06:13:47;44.95;;;26.40;;
46322;SDS011;32044;52.386;13.278;2023-10-19T06:16:15;46.40;;;26.80;;
46322;SDS011;32044;52.386;13.278;2023-10-19T06:18:43;46.40;;;26.58;;
46322;SDS011;32044;52.386;13.278;2023-10-19T06:21:10;43.55;;;27.10;;
46322;SDS011;32044;52.386;13.278;2023-10-19T06:23:40;43.97;;;26.83;;
46322;SDS011;32044;52.386;13.278;2023-10-19T06:26:10;44.60;;;27.38;;
46322;SDS011;32044;52.386;13.278;2023-10-19T06:28:38;35.90;;;23.73;;
46322;SDS011;32044;52.386;13.278;2023-10-19T06:31:07;47.72;;;28.60;;
46322;SDS011;32044;52.386;13.278;2023-10-19T06:33:35;45.10;;;28.08;;
46322;SDS011;32044;52.386;13.278;2023-10-19T06:36:08;50.30;;;28.15;;
46322;SDS011;32044;52.386;13.278;2023-10-19T06:38:35;47.30;;;28.10;;
46322;SDS011;32044;52.386;13.278;2023-10-19T06:41:11;47.92;;;29.60;;
46322;SDS011;32044;52.386;13.278;2023-10-19T06:43:39;44.90;;;26.10;;
46322;SDS011;32044;52.386;13.278;2023-10-19T06:46:07;47.05;;;29.25;;
46322;SDS011;32044;52.386;13.278;2023-10-19T06:48:38;44.47;;;28.55;;
46322;SDS011;32044;52.386;13.278;2023-10-19T06:51:06;45.58;;;28.05;;
46322;SDS011;32044;52.386;13.278;2023-10-19T06:53:34;52.10;;;30.35;;
46322;SDS011;32044;52.386;13.278;2023-10-19T06:56:02;43.55;;;28.52;;
46322;SDS011;32044;52.386;13.278;2023-10-19T06:58:32;51.95;;;30.20;;
46322;SDS011;32044;52.386;13.278;2023-10-19T07:01:00;46.50;;;29.90;;
46322;SDS011;32044;52.386;13.278;2023-10-19T07:05:59;48.83;;;29.05;;
46322;SDS011;32044;52.386;13.278;2023-10-19T07:08:34;46.95;;;28.95;;
46322;SDS011;32044;52.386;13.278;2023-10-19T07:11:02;48.33;;;29.83;;
46322;SDS011;32044;52.386;13.278;2023-10-19T07:13:29;47.28;;;30.05;;
46322;SDS011;32044;52.386;13.278;2023-10-19T07:16:01;48.88;;;29.52;;
46322;SDS011;32044;52.386;13.278;2023-10-19T07:18:30;46.70;;;29.02;;
46322;SDS011;32044;52.386;13.278;2023-10-19T07:20:58;47.72;;;30.50;;
46322;SDS011;32044;52.386;13.278;2023-10-19T07:25:57;49.30;;;28.08;;
46322;SDS011;32044;52.386;13.278;2023-10-19T07:28:27;53.65;;;31.02;;
46322;SDS011;32044;52.386;13.278;2023-10-19T07:30:55;49.72;;;28.83;;
46322;SDS011;32044;52.386;13.278;2023-10-19T07:33:24;46.70;;;28.95;;
46322;SDS011;32044;52.386;13.278;2023-10-19T07:35:52;44.10;;;28.50;;
46322;SDS011;32044;52.386;13.278;2023-10-19T07:38:21;48.63;;;28.85;;
46322;SDS011;32044;52.386;13.278;2023-10-19T07:40:49;52.63;;;27.70;;
46322;SDS011;32044;52.386;13.278;2023-10-19T07:43:19;48.45;;;28.83;;
46322;SDS011;32044;52.386;13.278;2023-10-19T07:45:50;45.80;;;28.47;;
46322;SDS011;32044;52.386;13.278;2023-10-19T07:48:19;47.05;;;28.05;;
46322;SDS011;32044;52.386;13.278;2023-10-19T07:50:48;46.15;;;27.55;;
46322;SDS011;32044;52.386;13.278;2023-10-19T07:53:15;50.58;;;28.58;;
46322;SDS011;32044;52.386;13.278;2023-10-19T07:55:43;49.25;;;28.00;;
46322;SDS011;32044;52.386;13.278;2023-10-19T07:58:10;42.67;;;27.40;;
46322;SDS011;32044;52.386;13.278;2023-10-19T08:00:38;43.33;;;25.02;;
46322;SDS011;32044;52.386;13.278;2023-10-19T08:03:08;46.53;;;27.33;;
46322;SDS011;32044;52.386;13.278;2023-10-19T08:05:36;48.28;;;26.33;;
46322;SDS011;32044;52.386;13.278;2023-10-19T08:08:06;50.08;;;28.25;;
46322;SDS011;32044;52.386;13.278;2023-10-19T08:10:35;45.42;;;27.48;;
46322;SDS011;32044;52.386;13.278;2023-10-19T08:13:03;48.08;;;27.75;;
46322;SDS011;32044;52.386;13.278;2023-10-19T08:15:31;44.63;;;26.48;;
46322;SDS011;32044;52.386;13.278;2023-10-19T08:17:58;48.10;;;28.83;;
46322;SDS011;32044;52.386;13.278;2023-10-19T08:20:26;42.72;;;26.50;;
46322;SDS011;32044;52.386;13.278;2023-10-19T08:22:58;35.38;;;20.25;;
46322;SDS011;32044;52.386;13.278;2023-10-19T08:25:29;45.65;;;26.33;;
46322;SDS011;32044;52.386;13.278;2023-10-19T08:28:00;47.53;;;28.17;;
46322;SDS011;32044;52.386;13.278;2023-10-19T08:30:28;49.45;;;29.45;;
46322;SDS011;32044;52.386;13.278;2023-10-19T08:32:55;48.58;;;28.08;;
46322;SDS011;32044;52.386;13.278;2023-10-19T08:35:24;48.50;;;28.88;;
46322;SDS011;32044;52.386;13.278;2023-10-19T08:37:52;45.63;;;27.90;;
46322;SDS011;32044;52.386;13.278;2023-10-19T08:40:20;43.45;;;28.30;;
46322;SDS011;32044;52.386;13.278;2023-10-19T08:42:51;46.67;;;27.95;;
46322;SDS011;32044;52.386;13.278;2023-10-19T08:45:19;43.33;;;27.20;;
46322;SDS011;32044;52.386;13.278;2023-10-19T08:47:48;47.05;;;25.77;;
46322;SDS011;32044;52.386;13.278;2023-10-19T08:50:23;48.40;;;26.98;;
46322;SDS011;32044;52.386;13.278;2023-10-19T08:52:52;43.28;;;27.77;;
46322;SDS011;32044;52.386;13.278;2023-10-19T08:55:20;46.38;;;27.77;;
46322;SDS011;32044;52.386;13.278;2023-10-19T08:58:07;45.60;;;28.02;;
46322;SDS011;32044;52.386;13.278;2023-10-19T09:00:42;49.60;;;27.75;;
46322;SDS011;32044;52.386;13.278;2023-10-19T09:03:14;49.13;;;29.10;;
46322;SDS011;32044;52.386;13.278;2023-10-19T09:05:43;46.75;;;27.70;;
46322;SDS011;32044;52.386;13.278;2023-10-19T09:08:14;45.15;;;28.02;;
46322;SDS011;32044;52.386;13.278;2023-10-19T09:10:43;47.70;;;28.55;;
46322;SDS011;32044;52.386;13.278;2023-10-19T09:13:14;48.35;;;30.35;;
46322;SDS011;32044;52.386;13.278;2023-10-19T09:15:46;48.22;;;29.20;;
46322;SDS011;32044;52.386;13.278;2023-10-19T09:18:15;47.05;;;29.58;;
46322;SDS011;32044;52.386;13.278;2023-10-19T09:20:44;50.65;;;28.92;;
46322;SDS011;32044;52.386;13.278;2023-10-19T09:23:20;48.45;;;27.45;;
46322;SDS011;32044;52.386;13.278;2023-10-19T09:25:48;46.08;;;28.67;;
46322;SDS011;32044;52.386;13.278;2023-10-19T09:28:17;45.45;;;29.88;;
46322;SDS011;32044;52.386;13.278;2023-10-19T09:30:45;51.67;;;29.45;;
46322;SDS011;32044;52.386;13.278;2023-10-19T09:33:13;48.78;;;29.95;;
46322;SDS011;32044;52.386;13.278;2023-10-19T09:35:44;47.60;;;29.60;;
46322;SDS011;32044;52.386;13.278;2023-10-19T09:38:14;47.90;;;31.35;;
46322;SDS011;32044;52.386;13.278;2023-10-19T09:40:48;50.20;;;29.70;;
46322;SDS011;32044;52.386;13.278;2023-10-19T09:43:16;51.17;;;30.42;;
46322;SDS011;32044;52.386;13.278;2023-10-19T09:45:50;42.70;;;29.10;;
46322;SDS011;32044;52.386;13.278;2023-10-19T09:48:19;54.78;;;31.55;;
46322;SDS011;32044;52.386;13.278;2023-10-19T09:50:50;50.08;;;31.13;;
46322;SDS011;32044;52.386;13.278;2023-10-19T09:53:22;55.50;;;31.33;;
46322;SDS011;32044;52.386;13.278;2023-10-19T09:55:51;50.58;;;32.15;;
46322;SDS011;32044;52.386;13.278;2023-10-19T09:58:24;49.78;;;31.92;;
46322;SDS011;32044;52.386;13.278;2023-10-19T10:00:55;50.15;;;31.55;;
46322;SDS011;32044;52.386;13.278;2023-10-19T10:03:43;49.75;;;31.60;;
46322;SDS011;32044;52.386;13.278;2023-10-19T10:06:11;55.58;;;32.85;;
46322;SDS011;32044;52.386;13.278;2023-10-19T10:08:40;50.55;;;32.28;;
46322;SDS011;32044;52.386;13.278;2023-10-19T10:11:18;54.80;;;33.95;;
46322;SDS011;32044;52.386;13.278;2023-10-19T10:13:48;52.45;;;32.47;;
46322;SDS011;32044;52.386;13.278;2023-10-19T10:16:21;54.65;;;33.47;;
46322;SDS011;32044;52.386;13.278;2023-10-19T10:18:50;57.65;;;35.47;;
46322;SDS011;32044;52.386;13.278;2023-10-19T10:21:22;51.83;;;33.38;;
46322;SDS011;32044;52.386;13.278;2023-10-19T10:23:51;49.45;;;33.53;;
46322;SDS011;32044;52.386;13.278;2023-10-19T10:26:21;52.35;;;34.60;;
46322;SDS011;32044;52.386;13.278;2023-10-19T10:31:46;52.10;;;34.05;;
46322;SDS011;32044;52.386;13.278;2023-10-19T10:37:12;55.70;;;33.88;;
46322;SDS011;32044;52.386;13.278;2023-10-19T10:39:41;52.72;;;35.53;;
46322;SDS011;32044;52.386;13.278;2023-10-19T10:42:11;59.08;;;35.85;;
46322;SDS011;32044;52.386;13.278;2023-10-19T10:44:42;57.63;;;35.90;;
46322;SDS011;32044;52.386;13.278;2023-10-19T10:47:11;61.88;;;37.30;;
46322;SDS011;32044;52.386;13.278;2023-10-19T10:49:47;57.22;;;35.88;;
46322;SDS011;32044;52.386;13.278;2023-10-19T10:52:26;55.25;;;35.67;;
46322;SDS011;32044;52.386;13.278;2023-10-19T10:54:56;52.33;;;34.15;;
46322;SDS011;32044;52.386;13.278;2023-10-19T10:57:23;61.00;;;37.30;;
46322;SDS011;32044;52.386;13.278;2023-10-19T11:00:03;60.50;;;36.63;;
46322;SDS011;32044;52.386;13.278;2023-10-19T11:02:34;59.22;;;38.08;;
46322;SDS011;32044;52.386;13.278;2023-10-19T11:05:02;61.83;;;37.17;;
46322;SDS011;32044;52.386;13.278;2023-10-19T11:07:31;61.47;;;37.25;;
46322;SDS011;32044;52.386;13.278;2023-10-19T11:09:58;62.90;;;40.13;;
46322;SDS011;32044;52.386;13.278;2023-10-19T11:12:28;61.47;;;37.78;;
46322;SDS011;32044;52.386;13.278;2023-10-19T11:14:56;65.57;;;38.75;;
46322;SDS011;32044;52.386;13.278;2023-10-19T11:17:28;64.20;;;39.20;;
46322;SDS011;32044;52.386;13.278;2023-10-19T11:19:57;60.80;;;37.25;;
46322;SDS011;32044;52.386;13.278;2023-10-19T11:22:26;59.88;;;36.15;;
46322;SDS011;32044;52.386;13.278;2023-10-19T11:24:54;56.40;;;36.47;;
46322;SDS011;32044;52.386;13.278;2023-10-19T11:27:23;57.28;;;36.25;;
46322;SDS011;32044;52.386;13.278;2023-10-19T11:29:53;53.08;;;33.72;;
46322;SDS011;32044;52.386;13.278;2023-10-19T11:32:22;55.38;;;34.10;;
46322;SDS011;32044;52.386;13.278;2023-10-19T11:34:53;54.05;;;33.90;;
46322;SDS011;32044;52.386;13.278;2023-10-19T11:37:22;50.40;;;31.98;;
46322;SDS011;32044;52.386;13.278;2023-10-19T11:39:51;47.22;;;30.55;;
46322;SDS011;32044;52.386;13.278;2023-10-19T11:42:19;50.20;;;30.90;;
46322;SDS011;32044;52.386;13.278;2023-10-19T11:44:46;45.00;;;30.75;;
46322;SDS011;32044;52.386;13.278;2023-10-19T11:47:14;47.03;;;28.80;;
46322;SDS011;32044;52.386;13.278;2023-10-19T11:49:41;44.53;;;29.17;;
46322;SDS011;32044;52.386;13.278;2023-10-19T11:52:10;45.63;;;29.55;;
46322;SDS011;32044;52.386;13.278;2023-10-19T11:54:38;46.35;;;28.63;;
46322;SDS011;32044;52.386;13.278;2023-10-19T11:57:06;52.55;;;30.25;;
46322;SDS011;32044;52.386;13.278;2023-10-19T11:59:33;52.22;;;30.83;;
46322;SDS011;32044;52.386;13.278;2023-10-19T12:02:01;46.95;;;30.45;;
46322;SDS011;32044;52.386;13.278;2023-10-19T12:04:30;46.47;;;30.13;;
46322;SDS011;32044;52.386;13.278;2023-10-19T12:06:59;42.30;;;27.58;;
46322;SDS011;32044;52.386;13.278;2023-10-19T12:09:28;46.90;;;30.50;;
46322;SDS011;32044;52.386;13.278;2023-10-19T12:11:56;49.47;;;31.08;;
46322;SDS011;32044;52.386;13.278;2023-10-19T12:14:25;49.38;;;30.10;;
46322;SDS011;32044;52.386;13.278;2023-10-19T12:16:52;52.50;;;31.85;;
46322;SDS011;32044;52.386;13.278;2023-10-19T12:19:24;50.63;;;31.20;;
46322;SDS011;32044;52.386;13.278;2023-10-19T12:21:52;52.05;;;33.13;;
46322;SDS011;32044;52.386;13.278;2023-10-19T12:24:19;58.13;;;34.58;;
46322;SDS011;32044;52.386;13.278;2023-10-19T12:26:48;57.08;;;35.47;;
46322;SDS011;32044;52.386;13.278;2023-10-19T12:29:17;61.83;;;36.10;;
46322;SDS011;32044;52.386;13.278;2023-10-19T12:31:47;58.83;;;37.47;;
46322;SDS011;32044;52.386;13.278;2023-10-19T12:34:15;57.90;;;36.03;;
46322;SDS011;32044;52.386;13.278;2023-10-19T12:36:43;59.63;;;36.42;;
46322;SDS011;32044;52.386;13.278;2023-10-19T12:39:13;56.72;;;35.30;;
46322;SDS011;32044;52.386;13.278;2023-10-19T12:42:03;58.50;;;34.58;;
46322;SDS011;32044;52.386;13.278;2023-10-19T12:44:30;64.72;;;36.25;;
46322;SDS011;32044;52.386;13.278;2023-10-19T12:47:05;61.10;;;36.03;;
46322;SDS011;32044;52.386;13.278;2023-10-19T12:49:36;60.88;;;36.22;;
46322;SDS011;32044;52.386;13.278;2023-10-19T12:52:04;61.58;;;34.88;;
46322;SDS011;32044;52.386;13.278;2023-10-19T12:54:33;59.25;;;36.80;;
46322;SDS011;32044;52.386;13.278;2023-10-19T12:57:03;62.53;;;37.85;;
46322;SDS011;32044;52.386;13.278;2023-10-19T12:59:33;58.30;;;38.22;;
46322;SDS011;32044;52.386;13.278;2023-10-19T13:02:03;65.43;;;38.33;;
46322;SDS011;32044;52.386;13.278;2023-10-19T13:04:31;59.88;;;37.15;;
46322;SDS011;32044;52.386;13.278;2023-10-19T13:06:59;59.65;;;37.97;;
46322;SDS011;32044;52.386;13.278;2023-10-19T13:09:31;60.00;;;38.25;;
46322;SDS011;32044;52.386;13.278;2023-10-19T13:11:59;61.60;;;37.40;;
46322;SDS011;32044;52.386;13.278;2023-10-19T13:14:28;55.20;;;34.80;;
46322;SDS011;32044;52.386;13.278;2023-10-19T13:16:56;62.25;;;37.60;;
46322;SDS011;32044;52.386;13.278;2023-10-19T13:19:23;58.40;;;36.40;;
46322;SDS011;32044;52.386;13.278;2023-10-19T13:21:52;59.58;;;37.92;;
46322;SDS011;32044;52.386;13.278;2023-10-19T13:24:20;54.08;;;36.38;;
46322;SDS011;32044;52.386;13.278;2023-10-19T13:26:48;57.92;;;36.90;;
46322;SDS011;32044;52.386;13.278;2023-10-19T13:29:17;57.17;;;36.00;;
46322;SDS011;32044;52.386;13.278;2023-10-19T13:31:48;61.58;;;35.85;;
46322;SDS011;32044;52.386;13.278;2023-10-19T13:34:17;57.53;;;37.47;;
46322;SDS011;32044;52.386;13.278;2023-10-19T13:36:44;58.60;;;36.58;;
46322;SDS011;32044;52.386;13.278;2023-10-19T13:39:12;59.92;;;37.55;;
46322;SDS011;32044;52.386;13.278;2023-10-19T13:41:43;61.55;;;36.15;;
46322;SDS011;32044;52.386;13.278;2023-10-19T13:44:11;57.67;;;36.40;;
46322;SDS011;32044;52.386;13.278;2023-10-19T13:46:39;55.47;;;35.38;;
46322;SDS011;32044;52.386;13.278;2023-10-19T13:49:08;57.03;;;36.92;;
46322;SDS011;32044;52.386;13.278;2023-10-19T13:51:36;58.25;;;37.50;;
46322;SDS011;32044;52.386;13.278;2023-10-19T13:54:05;63.80;;;37.47;;
46322;SDS011;32044;52.386;13.278;2023-10-19T13:56:33;61.45;;;37.00;;
46322;SDS011;32044;52.386;13.278;2023-10-19T13:59:02;62.30;;;39.30;;
46322;SDS011;32044;52.386;13.278;2023-10-19T14:01:29;65.28;;;38.60;;
46322;SDS011;32044;52.386;13.278;2023-10-19T14:03:57;59.00;;;36.83;;
46322;SDS011;32044;52.386;13.278;2023-10-19T14:06:26;64.07;;;37.70;;
46322;SDS011;32044;52.386;13.278;2023-10-19T14:08:54;61.40;;;37.80;;
46322;SDS011;32044;52.386;13.278;2023-10-19T14:11:21;59.42;;;39.40;;
46322;SDS011;32044;52.386;13.278;2023-10-19T14:13:49;62.40;;;38.65;;
46322;SDS011;32044;52.386;13.278;2023-10-19T14:16:19;69.47;;;41.08;;
46322;SDS011;32044;52.386;13.278;2023-10-19T14:18:46;60.13;;;39.83;;
46322;SDS011;32044;52.386;13.278;2023-10-19T14:21:14;69.97;;;41.28;;
46322;SDS011;32044;52.386;13.278;2023-10-19T14:23:44;63.05;;;40.67;;
46322;SDS011;32044;52.386;13.278;2023-10-19T14:26:12;63.72;;;40.78;;
46322;SDS011;32044;52.386;13.278;2023-10-19T14:28:41;68.30;;;44.42;;
46322;SDS011;32044;52.386;13.278;2023-10-19T14:31:08;62.03;;;40.20;;
46322;SDS011;32044;52.386;13.278;2023-10-19T14:33:37;68.20;;;41.75;;
46322;SDS011;32044;52.386;13.278;2023-10-19T14:36:05;64.68;;;42.17;;